createdAt,value
2022-08-14T00:00:22.577Z,1
2022-08-14T00:01:32.325Z,1.3
2022-08-14T00:02:41.969Z,1.4
2022-08-14T00:03:50.620Z,1.2
2022-08-14T00:05:01.413Z,1.3
2022-08-14T00:06:14.179Z,1.1
2022-08-14T00:07:21.824Z,1.2
2022-08-14T00:08:42.120Z,0.8
2022-08-14T00:09:56.450Z,1.2
2022-08-14T00:10:53.448Z,1.1
2022-08-14T00:12:02.699Z,1
2022-08-14T00:13:12.777Z,1.3
2022-08-14T00:14:22.048Z,1.1
2022-08-14T00:15:37.575Z,1
2022-08-14T00:16:44.942Z,1.4
2022-08-14T00:17:53.170Z,0.9
2022-08-14T00:19:05.710Z,1.2
2022-08-14T00:20:13.646Z,1.1
2022-08-14T00:21:28.298Z,1.2
2022-08-14T00:22:44.109Z,1.1
2022-08-14T00:23:44.724Z,1.1
2022-08-14T00:24:54.395Z,1.3
2022-08-14T00:26:06.409Z,0.9
2022-08-14T00:27:13.760Z,1
2022-08-14T00:28:23.426Z,0.9
2022-08-14T00:29:40.211Z,1.2
2022-08-14T00:30:43.759Z,0.8
2022-08-14T00:31:53.962Z,1
2022-08-14T00:33:06.168Z,1.1
2022-08-14T00:34:35.768Z,1.2
2022-08-14T00:35:25.951Z,1.2
2022-08-14T00:36:48.177Z,1.2
2022-08-14T00:37:47.002Z,1.1
2022-08-14T00:38:55.622Z,1.1
2022-08-14T00:40:05.524Z,1.3
2022-08-14T00:41:15.995Z,1.5
2022-08-14T00:42:52.954Z,1.3
2022-08-14T00:43:36.297Z,1.2
2022-08-14T00:44:45.038Z,1
2022-08-14T00:45:54.888Z,1
2022-08-14T00:47:03.580Z,1
2022-08-14T00:48:12.231Z,1.3
2022-08-14T00:49:22.926Z,1.2
2022-08-14T00:50:31.601Z,1.4
2022-08-14T00:51:41.269Z,1.4
2022-08-14T00:52:51.173Z,1.2
2022-08-14T00:53:58.665Z,1.3
2022-08-14T00:55:08.322Z,1.5
2022-08-14T00:56:17.951Z,1.7
2022-08-14T00:57:26.627Z,1.3
2022-08-14T00:58:36.283Z,1.5
2022-08-14T00:59:45.957Z,1.3
2022-08-14T01:00:57.372Z,1.4
2022-08-14T01:02:05.307Z,1.4
2022-08-14T01:03:15.027Z,1.3
2022-08-14T01:04:37.430Z,1.2
2022-08-14T01:05:41.965Z,1.4
2022-08-14T01:06:46.963Z,1.7
2022-08-14T01:07:56.802Z,1.6
2022-08-14T01:09:04.369Z,1.6
2022-08-14T01:10:14.987Z,1.4
2022-08-14T01:11:24.630Z,1.5
2022-08-14T01:12:40.408Z,1.4
2022-08-14T01:13:44.959Z,1.4
2022-08-14T01:14:54.679Z,1.3
2022-08-14T01:16:05.330Z,1.2
2022-08-14T01:17:16.005Z,1.1
2022-08-14T01:18:26.698Z,1.2
2022-08-14T01:19:36.366Z,1
2022-08-14T01:20:45.175Z,1.2
2022-08-14T01:21:54.826Z,1.2
2022-08-14T01:23:03.505Z,0.9
2022-08-14T01:24:14.166Z,1
2022-08-14T01:25:24.870Z,1
2022-08-14T01:26:38.760Z,1
2022-08-14T01:27:53.922Z,0.9
2022-08-14T01:28:56.374Z,1
2022-08-14T01:30:06.562Z,0.9
2022-08-14T01:31:17.306Z,0.8
2022-08-14T01:32:26.986Z,0.7
2022-08-14T01:33:59.085Z,1
2022-08-14T01:35:16.907Z,0.7
2022-08-14T01:36:04.203Z,0.9
2022-08-14T01:37:10.821Z,1.1
2022-08-14T01:38:20.396Z,1
2022-08-14T01:39:29.090Z,1
2022-08-14T01:40:41.181Z,1.1
2022-08-14T01:41:50.376Z,1.1
2022-08-14T01:42:59.166Z,1.1
2022-08-14T01:44:31.140Z,0.7
2022-08-14T01:45:25.404Z,1.1
2022-08-14T01:46:33.305Z,0.8
2022-08-14T01:47:39.826Z,1.2
2022-08-14T01:48:48.526Z,0.9
2022-08-14T01:50:01.529Z,1.1
2022-08-14T01:51:18.914Z,1.2
2022-08-14T01:52:33.795Z,1.3
2022-08-14T01:53:29.717Z,1.2
2022-08-14T01:54:39.869Z,0.9
2022-08-14T01:55:49.550Z,0.9
2022-08-14T01:56:59.220Z,0.8
2022-08-14T01:58:19.115Z,0.9
2022-08-14T01:59:19.469Z,1.2
2022-08-14T02:00:28.152Z,1.1
2022-08-14T02:01:37.881Z,0.9
2022-08-14T02:02:48.700Z,1.2
2022-08-14T02:03:59.116Z,0.9
2022-08-14T02:05:07.846Z,1
2022-08-14T02:06:32.012Z,0.7
2022-08-14T02:07:34.787Z,0.9
2022-08-14T02:08:52.416Z,0.9
2022-08-14T02:09:55.769Z,1
2022-08-14T02:10:58.114Z,0.8
2022-08-14T02:12:07.779Z,1
2022-08-14T02:13:15.996Z,0.8
2022-08-14T02:14:31.295Z,0.8
2022-08-14T02:15:34.839Z,1
2022-08-14T02:16:43.555Z,1
2022-08-14T02:17:54.202Z,1
2022-08-14T02:19:03.017Z,0.9
2022-08-14T02:20:11.716Z,1.1
2022-08-14T02:21:23.263Z,0.9
2022-08-14T02:22:32.879Z,1
2022-08-14T02:23:40.760Z,0.8
2022-08-14T02:24:50.562Z,0.9
2022-08-14T02:25:59.252Z,1.2
2022-08-14T02:28:19.967Z,1.1
2022-08-14T02:28:26.178Z,1.3
2022-08-14T02:29:56.616Z,1
2022-08-14T02:30:42.019Z,1.2
2022-08-14T02:31:49.681Z,1.2
2022-08-14T02:32:59.333Z,1.2
2022-08-14T02:34:14.512Z,1.4
2022-08-14T02:35:16.617Z,1.2
2022-08-14T02:37:03.120Z,1.4
2022-08-14T02:37:46.484Z,1.3
2022-08-14T02:38:45.620Z,1.4
2022-08-14T02:39:55.328Z,1.1
2022-08-14T02:41:08.860Z,0.9
2022-08-14T02:42:13.650Z,1
2022-08-14T02:43:23.291Z,1.4
2022-08-14T02:44:39.447Z,1.1
2022-08-14T02:45:44.825Z,1.5
2022-08-14T02:46:53.276Z,1.2
2022-08-14T02:48:03.980Z,1.2
2022-08-14T02:49:13.663Z,1.5
2022-08-14T02:50:22.318Z,0.8
2022-08-14T02:51:31.948Z,1.3
2022-08-14T02:52:56.920Z,1.3
2022-08-14T02:53:52.310Z,1
2022-08-14T02:55:01.993Z,1.1
2022-08-14T02:56:29.920Z,0.9
2022-08-14T02:57:39.529Z,1.3
2022-08-14T02:58:32.967Z,1.2
2022-08-14T02:59:43.223Z,0.9
2022-08-14T03:00:50.319Z,1
2022-08-14T03:01:59.989Z,1
2022-08-14T03:03:10.663Z,0.8
2022-08-14T03:04:21.337Z,1
2022-08-14T03:05:30.022Z,1.1
2022-08-14T03:06:56.792Z,1.1
2022-08-14T03:07:51.810Z,0.9
2022-08-14T03:09:01.030Z,0.9
2022-08-14T03:10:25.389Z,1.1
2022-08-14T03:11:21.441Z,0.9
2022-08-14T03:12:32.779Z,1
2022-08-14T03:13:41.718Z,1.1
2022-08-14T03:14:50.417Z,1.3
2022-08-14T03:16:00.049Z,1.2
2022-08-14T03:17:09.746Z,1.2
2022-08-14T03:18:19.417Z,1.4
2022-08-14T03:19:30.111Z,1.3
2022-08-14T03:20:37.785Z,1.2
2022-08-14T03:21:46.473Z,1
2022-08-14T03:22:57.156Z,1.2
2022-08-14T03:24:04.911Z,0.9
2022-08-14T03:25:15.537Z,1
2022-08-14T03:26:29.612Z,1
2022-08-14T03:27:48.135Z,0.9
2022-08-14T03:28:46.555Z,0.8
2022-08-14T03:29:54.226Z,0.9
2022-08-14T03:31:02.897Z,1
2022-08-14T03:32:12.564Z,1
2022-08-14T03:33:22.248Z,1.3
2022-08-14T03:34:47.454Z,1
2022-08-14T03:36:00.495Z,0.8
2022-08-14T03:37:29.482Z,1.1
2022-08-14T03:39:11.001Z,0.8
2022-08-14T03:39:22.389Z,0.7
2022-08-14T03:40:24.463Z,0.8
2022-08-14T03:41:34.194Z,0.8
2022-08-14T03:42:42.780Z,1.1
2022-08-14T03:43:57.375Z,0.8
2022-08-14T03:45:18.085Z,0.8
2022-08-14T03:46:38.691Z,1
2022-08-14T03:47:24.589Z,0.8
2022-08-14T03:48:37.344Z,0.7
2022-08-14T03:49:46.048Z,0.8
2022-08-14T03:50:54.635Z,1.1
2022-08-14T03:52:04.341Z,1.5
2022-08-14T03:53:13.982Z,0.8
2022-08-14T03:54:23.614Z,1
2022-08-14T03:55:33.302Z,1.2
2022-08-14T03:56:42.964Z,1.1
2022-08-14T03:57:50.634Z,1.2
2022-08-14T03:59:00.326Z,1.1
2022-08-14T04:00:13.342Z,0.9
2022-08-14T04:01:18.774Z,1.1
2022-08-14T04:02:32.093Z,1
2022-08-14T04:03:37.230Z,0.8
2022-08-14T04:04:46.757Z,1.2
2022-08-14T04:05:57.481Z,0.8
2022-08-14T04:07:06.190Z,1.2
2022-08-14T04:08:23.392Z,0.9
2022-08-14T04:09:27.244Z,0.9
2022-08-14T04:10:35.663Z,1.1
2022-08-14T04:11:45.367Z,0.8
2022-08-14T04:12:55.016Z,0.9
2022-08-14T04:14:02.710Z,0.9
2022-08-14T04:15:13.396Z,1
2022-08-14T04:16:22.065Z,1.2
2022-08-14T04:17:31.785Z,1.1
2022-08-14T04:18:42.614Z,1
2022-08-14T04:19:51.128Z,0.9
2022-08-14T04:21:00.869Z,1.3
2022-08-14T04:22:10.593Z,1
2022-08-14T04:23:23.481Z,1
2022-08-14T04:24:37.927Z,1.2
2022-08-14T04:25:41.538Z,1.1
2022-08-14T04:26:51.223Z,0.9
2022-08-14T04:28:02.055Z,1.4
2022-08-14T04:29:14.838Z,1
2022-08-14T04:30:30.982Z,0.9
2022-08-14T04:32:56.935Z,1.2
2022-08-14T04:32:57.245Z,0.9
2022-08-14T04:33:54.292Z,1.3
2022-08-14T04:35:07.156Z,1
2022-08-14T04:36:15.728Z,1
2022-08-14T04:37:24.672Z,1
2022-08-14T04:38:37.367Z,1.2
2022-08-14T04:39:46.307Z,1.2
2022-08-14T04:40:55.458Z,0.8
2022-08-14T04:42:01.037Z,0.9
2022-08-14T04:43:13.139Z,0.9
2022-08-14T04:44:26.437Z,0.8
2022-08-14T04:45:31.103Z,0.7
2022-08-14T04:46:54.649Z,1.2
2022-08-14T04:47:53.615Z,0.8
2022-08-14T04:49:02.118Z,0.7
2022-08-14T04:50:10.890Z,1
2022-08-14T04:51:18.678Z,0.8
2022-08-14T04:52:28.328Z,0.9
2022-08-14T04:53:40.916Z,0.9
2022-08-14T04:54:47.637Z,0.9
2022-08-14T04:55:57.325Z,1.3
2022-08-14T04:57:05.021Z,1.3
2022-08-14T04:58:21.410Z,1.1
2022-08-14T04:59:24.359Z,1.1
2022-08-14T05:00:32.057Z,1.4
2022-08-14T05:01:45.442Z,1.1
2022-08-14T05:02:51.432Z,1.1
2022-08-14T05:04:00.077Z,0.9
2022-08-14T05:05:09.718Z,1
2022-08-14T05:06:38.727Z,1.1
2022-08-14T05:07:34.079Z,1
2022-08-14T05:08:50.435Z,1.1
2022-08-14T05:09:50.362Z,1
2022-08-14T05:11:00.017Z,1
2022-08-14T05:13:02.895Z,1.3
2022-08-14T05:13:20.445Z,1.3
2022-08-14T05:14:43.579Z,0.9
2022-08-14T05:15:40.667Z,1.3
2022-08-14T05:16:50.345Z,1.3
2022-08-14T05:18:03.714Z,1.2
2022-08-14T05:19:17.332Z,1.3
2022-08-14T05:20:33.346Z,1.7
2022-08-14T05:21:55.721Z,1.7
2022-08-14T05:22:43.104Z,1.6
2022-08-14T05:23:51.559Z,1.4
2022-08-14T05:25:01.282Z,1.8
2022-08-14T05:26:10.962Z,1.8
2022-08-14T05:27:19.634Z,1.4
2022-08-14T05:28:30.315Z,1.7
2022-08-14T05:29:38.068Z,1.3
2022-08-14T05:30:46.737Z,1.3
2022-08-14T05:31:57.492Z,1.6
2022-08-14T05:33:06.125Z,1.3
2022-08-14T05:34:16.793Z,1.6
2022-08-14T05:35:27.514Z,1.3
2022-08-14T05:36:38.227Z,1.1
2022-08-14T05:37:48.896Z,1.7
2022-08-14T05:38:58.561Z,1.5
2022-08-14T05:40:07.201Z,1.3
2022-08-14T05:41:17.855Z,1.3
2022-08-14T05:42:27.180Z,1.1
2022-08-14T05:43:41.102Z,1
2022-08-14T05:44:46.888Z,0.8
2022-08-14T05:45:54.590Z,0.8
2022-08-14T05:47:04.291Z,0.7
2022-08-14T05:48:13.943Z,0.9
2022-08-14T05:49:26.182Z,0.9
2022-08-14T05:50:34.291Z,0.9
2022-08-14T05:51:43.961Z,1
2022-08-14T05:52:52.794Z,1.1
2022-08-14T05:54:10.115Z,1.5
2022-08-14T05:55:11.394Z,1.1
2022-08-14T05:56:20.740Z,0.9
2022-08-14T05:57:29.385Z,1
2022-08-14T05:58:41.148Z,0.7
2022-08-14T05:59:49.825Z,1
2022-08-14T06:00:58.516Z,1
2022-08-14T06:02:07.143Z,0.9
2022-08-14T06:03:16.847Z,1
2022-08-14T06:04:26.522Z,0.8
2022-08-14T06:05:38.575Z,1.1
2022-08-14T06:06:45.860Z,0.7
2022-08-14T06:07:55.537Z,0.7
2022-08-14T06:09:06.210Z,2.2
2022-08-14T06:10:15.880Z,2.6
2022-08-14T06:11:30.872Z,2
2022-08-14T06:12:56.196Z,2.1
2022-08-14T06:13:46.852Z,2.9
2022-08-14T06:14:57.511Z,2.5
2022-08-14T06:16:06.192Z,2.7
2022-08-14T06:17:24.724Z,3
2022-08-14T06:18:26.646Z,2.2
2022-08-14T06:19:35.313Z,1.6
2022-08-14T06:20:45.026Z,1.3
2022-08-14T06:21:58.534Z,1.3
2022-08-14T06:23:03.397Z,1.1
2022-08-14T06:24:17.986Z,1.3
2022-08-14T06:25:22.742Z,1
2022-08-14T06:26:31.386Z,1
2022-08-14T06:27:41.047Z,1.1
2022-08-14T06:28:51.907Z,0.9
2022-08-14T06:30:00.432Z,0.8
2022-08-14T06:31:10.083Z,0.8
2022-08-14T06:32:36.990Z,0.4
2022-08-14T06:33:30.264Z,1.1
2022-08-14T06:35:02.030Z,1.5
2022-08-14T06:35:50.755Z,0.7
2022-08-14T06:37:00.473Z,0.7
2022-08-14T06:38:12.205Z,0.7
2022-08-14T06:39:36.221Z,0.8
2022-08-14T06:40:34.181Z,0.6
2022-08-14T06:41:57.381Z,0.7
2022-08-14T06:42:53.017Z,0.6
2022-08-14T06:44:02.221Z,0.9
2022-08-14T06:45:09.558Z,0.8
2022-08-14T06:46:23.380Z,0.8
2022-08-14T06:47:28.932Z,0.7
2022-08-14T06:48:37.594Z,0.7
2022-08-14T06:49:48.480Z,0.5
2022-08-14T06:50:57.808Z,0.8
2022-08-14T06:52:07.669Z,0.6
2022-08-14T06:53:16.347Z,0.4
2022-08-14T06:54:31.091Z,0.7
2022-08-14T06:55:36.947Z,0.5
2022-08-14T06:56:54.241Z,0.4
2022-08-14T06:57:55.126Z,0.4
2022-08-14T06:59:05.224Z,0.7
2022-08-14T07:00:15.120Z,0.7
2022-08-14T07:01:27.274Z,0.7
2022-08-14T07:02:35.861Z,0.5
2022-08-14T07:03:45.449Z,0.6
2022-08-14T07:04:56.145Z,0.6
2022-08-14T07:06:06.183Z,0.7
2022-08-14T07:07:15.457Z,0.5
2022-08-14T07:08:25.743Z,0.4
2022-08-14T07:09:40.745Z,0.6
2022-08-14T07:10:44.491Z,0.6
2022-08-14T07:11:53.236Z,0.5
2022-08-14T07:13:04.119Z,0.9
2022-08-14T07:14:12.576Z,0.6
2022-08-14T07:15:22.271Z,0.4
2022-08-14T07:16:31.036Z,0.7
2022-08-14T07:17:40.699Z,0.5
2022-08-14T07:18:51.369Z,0.6
2022-08-14T07:20:01.066Z,0.5
2022-08-14T07:21:09.786Z,0.4
2022-08-14T07:22:20.370Z,0.2
2022-08-14T07:23:28.148Z,0.6
2022-08-14T07:24:37.852Z,0.4
2022-08-14T07:25:47.500Z,0.5
2022-08-14T07:26:55.189Z,0.5
2022-08-14T07:28:04.865Z,0.4
2022-08-14T07:29:14.503Z,0.4
2022-08-14T07:30:33.522Z,0.5
2022-08-14T07:31:35.879Z,0.5
2022-08-14T07:32:44.705Z,0.5
2022-08-14T07:33:53.242Z,0.7
2022-08-14T07:35:02.915Z,0.4
2022-08-14T07:36:26.754Z,0.4
2022-08-14T07:37:22.211Z,0.5
2022-08-14T07:38:36.416Z,0.3
2022-08-14T07:39:43.539Z,0.1
2022-08-14T07:40:52.889Z,0.5
2022-08-14T07:42:01.959Z,0.3
2022-08-14T07:43:13.553Z,0.5
2022-08-14T07:44:22.659Z,0.1
2022-08-14T07:45:32.125Z,0.3
2022-08-14T07:46:40.565Z,0.3
2022-08-14T07:47:50.226Z,0.2
2022-08-14T07:48:58.913Z,0.2
2022-08-14T07:50:08.611Z,0.2
2022-08-14T07:51:18.252Z,0.3
2022-08-14T07:52:30.408Z,0.1
2022-08-14T07:53:40.693Z,0.2
2022-08-14T07:54:49.216Z,0.2
2022-08-14T07:56:00.097Z,0.2
2022-08-14T07:57:12.005Z,0.4
2022-08-14T07:58:21.264Z,0.3
2022-08-14T07:59:40.731Z,0.2
2022-08-14T08:00:40.448Z,0.1
2022-08-14T08:01:51.856Z,0.4
2022-08-14T08:03:00.886Z,0.3
2022-08-14T08:04:11.026Z,0.1
2022-08-14T08:05:20.166Z,0.2
2022-08-14T08:06:29.859Z,0.3
2022-08-14T08:07:39.517Z,0.3
2022-08-14T08:08:58.927Z,0.3
2022-08-14T08:09:59.950Z,0.2
2022-08-14T08:11:14.771Z,0.2
2022-08-14T08:12:20.182Z,0.3
2022-08-14T08:13:29.860Z,0.3
2022-08-14T08:14:55.210Z,0.2
2022-08-14T08:15:50.181Z,0.3
2022-08-14T08:16:57.854Z,0.3
2022-08-14T08:18:07.542Z,0.3
2022-08-14T08:19:18.223Z,0.2
2022-08-14T08:20:27.899Z,0.4
2022-08-14T08:21:38.594Z,0.3
2022-08-14T08:22:49.813Z,0
2022-08-14T08:23:58.920Z,0.5
2022-08-14T08:25:11.441Z,0.2
2022-08-14T08:26:18.287Z,0.2
2022-08-14T08:27:27.938Z,0.4
2022-08-14T08:28:41.496Z,0.2
2022-08-14T08:29:53.129Z,0.2
2022-08-14T08:31:05.625Z,0.1
2022-08-14T08:32:15.736Z,0.1
2022-08-14T08:33:26.126Z,0.3
2022-08-14T08:34:35.779Z,0.2
2022-08-14T08:35:46.731Z,0.2
2022-08-14T08:36:56.844Z,0.2
2022-08-14T08:38:14.181Z,0.3
2022-08-14T08:39:22.955Z,0.4
2022-08-14T08:40:30.946Z,0.3
2022-08-14T08:41:37.783Z,0.2
2022-08-14T08:42:47.694Z,0.2
2022-08-14T08:43:58.218Z,0.1
2022-08-14T08:45:08.150Z,0.2
2022-08-14T08:46:18.763Z,0.2
2022-08-14T08:47:27.131Z,0.2
2022-08-14T08:48:40.454Z,0.1
2022-08-14T08:49:48.931Z,0.2
2022-08-14T08:50:58.316Z,0.3
2022-08-14T08:52:06.966Z,0.2
2022-08-14T08:53:17.667Z,0.2
2022-08-14T08:54:30.853Z,0.2
2022-08-14T08:55:38.014Z,0.2
2022-08-14T08:56:47.697Z,0.8
2022-08-14T08:57:57.351Z,0.2
2022-08-14T08:59:07.078Z,0.2
2022-08-14T09:00:24.774Z,0.4
2022-08-14T09:01:27.461Z,0.2
2022-08-14T09:02:36.053Z,0.2
2022-08-14T09:03:45.691Z,0.2
2022-08-14T09:04:56.359Z,0.2
2022-08-14T09:06:05.161Z,0.1
2022-08-14T09:07:14.828Z,0.2
2022-08-14T09:08:26.450Z,0.3
2022-08-14T09:09:34.106Z,0.2
2022-08-14T09:10:44.753Z,0.3
2022-08-14T09:11:53.410Z,0.3
2022-08-14T09:13:02.071Z,0.2
2022-08-14T09:14:11.747Z,0.2
2022-08-14T09:15:21.428Z,0.2
2022-08-14T09:16:32.137Z,0.2
2022-08-14T09:17:42.231Z,0.2
2022-08-14T09:18:50.472Z,0.1
2022-08-14T09:20:01.880Z,0
2022-08-14T09:21:11.778Z,0.1
2022-08-14T09:22:33.276Z,0.3
2022-08-14T09:23:34.705Z,0.7
2022-08-14T09:24:44.158Z,0.3
2022-08-14T09:25:59.269Z,0.1
2022-08-14T09:27:01.987Z,0.3
2022-08-14T09:28:09.634Z,0.3
2022-08-14T09:29:19.956Z,0.3
2022-08-14T09:30:31.904Z,0.3
2022-08-14T09:31:42.809Z,0.3
2022-08-14T09:32:58.537Z,0.2
2022-08-14T09:34:01.166Z,0.3
2022-08-14T09:35:11.875Z,0.3
2022-08-14T09:36:21.549Z,0.2
2022-08-14T09:37:31.391Z,0.1
2022-08-14T09:38:41.061Z,0.2
2022-08-14T09:39:48.747Z,0.2
2022-08-14T09:40:58.414Z,0.2
2022-08-14T09:42:17.253Z,0.3
2022-08-14T09:43:20.073Z,0.2
2022-08-14T09:44:29.755Z,0.3
2022-08-14T09:45:52.747Z,0.3
2022-08-14T09:46:50.564Z,0.3
2022-08-14T09:48:00.324Z,0.2
2022-08-14T09:49:12.099Z,0.1
2022-08-14T09:50:19.829Z,0.2
2022-08-14T09:51:32.557Z,0.3
2022-08-14T09:52:40.410Z,0.1
2022-08-14T09:54:13.144Z,0.1
2022-08-14T09:55:00.607Z,0.2
2022-08-14T09:56:10.355Z,0.2
2022-08-14T09:57:21.050Z,0.1
2022-08-14T09:58:29.718Z,0.3
2022-08-14T09:59:38.398Z,0.3
2022-08-14T10:00:48.073Z,0.1
2022-08-14T10:01:56.723Z,0.2
2022-08-14T10:03:06.523Z,0.3
2022-08-14T10:04:33.307Z,0.4
2022-08-14T10:05:24.842Z,0.2
2022-08-14T10:06:34.513Z,0.4
2022-08-14T10:07:47.422Z,0.1
2022-08-14T10:08:52.983Z,0.3
2022-08-14T10:10:02.670Z,0.3
2022-08-14T10:11:13.338Z,0.5
2022-08-14T10:12:28.924Z,0.3
2022-08-14T10:13:37.229Z,0.2
2022-08-14T10:14:44.350Z,0.3
2022-08-14T10:15:55.106Z,0.3
2022-08-14T10:17:05.085Z,0.4
2022-08-14T10:18:17.371Z,0.2
2022-08-14T10:19:25.153Z,0.3
2022-08-14T10:20:40.044Z,0.3
2022-08-14T10:21:58.154Z,0.3
2022-08-14T10:23:13.969Z,0.4
2022-08-14T10:24:06.857Z,0.5
2022-08-14T10:25:17.523Z,0.2
2022-08-14T10:26:27.993Z,0.2
2022-08-14T10:27:37.964Z,0.3
2022-08-14T10:29:04.088Z,0.2
2022-08-14T10:29:58.075Z,0.5
2022-08-14T10:31:07.061Z,0.1
2022-08-14T10:32:17.548Z,0.1
2022-08-14T10:33:27.517Z,0.2
2022-08-14T10:34:38.634Z,0.1
2022-08-14T10:35:47.950Z,0.1
2022-08-14T10:36:57.531Z,0
2022-08-14T10:38:08.210Z,0.1
2022-08-14T10:39:17.069Z,0.2
2022-08-14T10:40:37.215Z,0.3
2022-08-14T10:41:41.766Z,0.3
2022-08-14T10:42:47.209Z,0.2
2022-08-14T10:43:56.705Z,0.4
2022-08-14T10:45:06.415Z,0.3
2022-08-14T10:46:22.143Z,0.2
2022-08-14T10:47:37.617Z,0.3
2022-08-14T10:48:42.112Z,0.2
2022-08-14T10:49:48.051Z,0.1
2022-08-14T10:50:57.858Z,0.2
2022-08-14T10:52:06.548Z,0.3
2022-08-14T10:53:16.240Z,0.2
2022-08-14T10:54:36.384Z,0.1
2022-08-14T10:55:36.499Z,0.2
2022-08-14T10:56:47.284Z,0.1
2022-08-14T10:57:54.996Z,0.2
2022-08-14T10:59:04.685Z,0.2
2022-08-14T11:00:13.372Z,0.3
2022-08-14T11:01:22.112Z,0.1
2022-08-14T11:02:36.054Z,0.4
2022-08-14T11:03:55.608Z,0.2
2022-08-14T11:04:53.261Z,0.4
2022-08-14T11:06:02.927Z,0.1
2022-08-14T11:07:11.597Z,0.3
2022-08-14T11:08:21.292Z,0.4
2022-08-14T11:09:31.262Z,0.2
2022-08-14T11:10:42.959Z,0.2
2022-08-14T11:11:55.134Z,0.1
2022-08-14T11:13:02.087Z,0.2
2022-08-14T11:14:12.806Z,0.2
2022-08-14T11:15:20.450Z,0.2
2022-08-14T11:16:31.109Z,0.2
2022-08-14T11:17:40.876Z,0
2022-08-14T11:18:51.517Z,0.2
2022-08-14T11:20:02.479Z,0.2
2022-08-14T11:21:10.887Z,0.2
2022-08-14T11:22:52.175Z,0.3
2022-08-14T11:23:37.975Z,0.2
2022-08-14T11:24:50.312Z,0.3
2022-08-14T11:25:52.939Z,0.1
2022-08-14T11:27:02.383Z,0.1
2022-08-14T11:28:14.626Z,0.2
2022-08-14T11:29:24.661Z,0.1
2022-08-14T11:30:48.869Z,0.3
2022-08-14T11:31:44.032Z,0.4
2022-08-14T11:32:53.796Z,0.3
2022-08-14T11:34:02.463Z,0.1
2022-08-14T11:35:12.113Z,0.3
2022-08-14T11:36:21.846Z,0.6
2022-08-14T11:37:40.268Z,0.2
2022-08-14T11:38:44.862Z,0.3
2022-08-14T11:39:51.958Z,0.1
2022-08-14T11:41:00.589Z,0.2
2022-08-14T11:42:55.921Z,0.2
2022-08-14T11:43:22.776Z,0.1
2022-08-14T11:44:46.122Z,0.1
2022-08-14T11:45:41.391Z,0.2
2022-08-14T11:46:50.084Z,0.2
2022-08-14T11:48:10.583Z,0.1
2022-08-14T11:49:10.807Z,0.2
2022-08-14T11:50:25.270Z,0.2
2022-08-14T11:51:30.917Z,0.2
2022-08-14T11:52:40.719Z,0.1
2022-08-14T11:53:49.362Z,0
2022-08-14T11:54:59.103Z,0.1
2022-08-14T11:56:08.749Z,0.3
2022-08-14T11:57:19.422Z,0.2
2022-08-14T11:58:29.051Z,0.3
2022-08-14T11:59:44.068Z,0.3
2022-08-14T12:00:49.501Z,0.2
2022-08-14T12:01:58.170Z,0.1
2022-08-14T12:03:07.100Z,0.2
2022-08-14T12:04:21.463Z,0.2
2022-08-14T12:05:27.304Z,0.2
2022-08-14T12:06:39.537Z,0.2
2022-08-14T12:07:48.326Z,0.2
2022-08-14T12:08:56.272Z,0.3
2022-08-14T12:10:25.855Z,0.3
2022-08-14T12:11:15.577Z,0.2
2022-08-14T12:12:35.370Z,0.3
2022-08-14T12:13:34.950Z,0.2
2022-08-14T12:14:44.607Z,0.3
2022-08-14T12:15:55.289Z,0.2
2022-08-14T12:17:04.975Z,0.1
2022-08-14T12:18:19.423Z,0.1
2022-08-14T12:19:25.522Z,0
2022-08-14T12:20:35.207Z,0.2
2022-08-14T12:21:48.188Z,0.3
2022-08-14T12:22:55.592Z,0.2
2022-08-14T12:24:04.288Z,0.1
2022-08-14T12:25:13.963Z,0.1
2022-08-14T12:26:32.311Z,0.1
2022-08-14T12:27:33.509Z,0
2022-08-14T12:28:59.603Z,0.2
2022-08-14T12:29:54.831Z,0.1
2022-08-14T12:31:04.500Z,0.2
2022-08-14T12:32:14.191Z,0.1
2022-08-14T12:33:21.920Z,0
2022-08-14T12:34:32.666Z,0.2
2022-08-14T12:35:42.431Z,0.4
2022-08-14T12:36:52.252Z,0.1
2022-08-14T12:38:01.941Z,0.3
2022-08-14T12:39:09.784Z,0.2
2022-08-14T12:40:20.952Z,0.3
2022-08-14T12:41:34.341Z,0.2
2022-08-14T12:42:44.433Z,0.3
2022-08-14T12:43:51.541Z,0.1
2022-08-14T12:45:00.150Z,0.3
2022-08-14T12:46:11.635Z,0.1
2022-08-14T12:47:21.588Z,0.2
2022-08-14T12:48:31.762Z,0.3
2022-08-14T12:49:41.025Z,0
2022-08-14T12:50:51.665Z,0.1
2022-08-14T12:52:00.349Z,0.1
2022-08-14T12:53:14.409Z,0.2
2022-08-14T12:54:27.950Z,0
2022-08-14T12:55:32.421Z,0
2022-08-14T12:56:42.008Z,0.2
2022-08-14T12:57:53.107Z,0.2
2022-08-14T12:59:01.436Z,0.2
2022-08-14T13:00:22.345Z,0.3
2022-08-14T13:01:21.841Z,0.1
2022-08-14T13:02:31.447Z,0.1
2022-08-14T13:03:40.123Z,0.5
2022-08-14T13:04:47.962Z,0.1
2022-08-14T13:05:57.634Z,0.3
2022-08-14T13:07:06.289Z,0.2
2022-08-14T13:08:33.157Z,0.2
2022-08-14T13:09:27.600Z,0
2022-08-14T13:10:46.420Z,0.1
2022-08-14T13:11:48.961Z,0.1
2022-08-14T13:13:15.327Z,0.2
2022-08-14T13:14:16.915Z,0.1
2022-08-14T13:15:20.993Z,0.2
2022-08-14T13:16:33.938Z,0.2
2022-08-14T13:17:41.412Z,0
2022-08-14T13:18:57.398Z,0.1
2022-08-14T13:20:00.723Z,0.2
2022-08-14T13:21:10.423Z,0.1
2022-08-14T13:22:29.363Z,0.1
2022-08-14T13:23:32.437Z,0.2
2022-08-14T13:24:40.587Z,0
2022-08-14T13:25:55.899Z,0.2
2022-08-14T13:27:00.933Z,0.2
2022-08-14T13:28:10.849Z,0.1
2022-08-14T13:29:20.475Z,0.6
2022-08-14T13:30:29.999Z,0.2
2022-08-14T13:31:38.661Z,0.2
2022-08-14T13:32:49.341Z,0.2
2022-08-14T13:33:59.065Z,0.3
2022-08-14T13:35:11.026Z,0.1
2022-08-14T13:36:23.820Z,0.3
2022-08-14T13:37:29.060Z,0.1
2022-08-14T13:38:37.732Z,0
2022-08-14T13:39:47.428Z,0.1
2022-08-14T13:40:57.077Z,0.2
2022-08-14T13:42:08.170Z,0.3
2022-08-14T13:43:16.418Z,0.4
2022-08-14T13:44:26.130Z,0.2
2022-08-14T13:45:59.485Z,0.3
2022-08-14T13:46:46.497Z,0.2
2022-08-14T13:47:56.159Z,0.3
2022-08-14T13:49:05.836Z,0.2
2022-08-14T13:50:15.584Z,0.2
2022-08-14T13:51:26.338Z,0.1
2022-08-14T13:52:48.515Z,0.1
2022-08-14T13:54:01.449Z,0.3
2022-08-14T13:54:57.358Z,0.2
2022-08-14T13:56:04.035Z,0.1
2022-08-14T13:57:12.754Z,0.1
2022-08-14T13:58:30.171Z,0.3
2022-08-14T13:59:37.497Z,0.1
2022-08-14T14:00:52.049Z,0.2
2022-08-14T14:01:54.379Z,0.4
2022-08-14T14:03:03.074Z,0.2
2022-08-14T14:04:17.986Z,0.3
2022-08-14T14:05:22.444Z,0.2
2022-08-14T14:06:31.145Z,0.2
2022-08-14T14:07:43.393Z,0.1
2022-08-14T14:08:51.657Z,0.6
2022-08-14T14:10:01.388Z,0.9
2022-08-14T14:11:11.119Z,0.2
2022-08-14T14:12:36.877Z,0.3
2022-08-14T14:13:31.753Z,0.2
2022-08-14T14:14:45.317Z,0.3
2022-08-14T14:15:58.627Z,0.1
2022-08-14T14:17:03.054Z,0.1
2022-08-14T14:18:15.368Z,0.2
2022-08-14T14:19:24.429Z,0.4
2022-08-14T14:20:36.483Z,0.5
2022-08-14T14:21:44.748Z,0.2
2022-08-14T14:23:02.046Z,0
2022-08-14T14:24:06.158Z,0.1
2022-08-14T14:25:19.345Z,0.3
2022-08-14T14:26:26.473Z,0.1
2022-08-14T14:27:43.185Z,0
2022-08-14T14:28:46.932Z,0.2
2022-08-14T14:29:58.469Z,0.2
2022-08-14T14:31:07.354Z,0.3
2022-08-14T14:32:17.427Z,0.4
2022-08-14T14:33:47.294Z,0.3
2022-08-14T14:34:37.256Z,0.1
2022-08-14T14:35:46.926Z,0.3
2022-08-14T14:36:56.587Z,0.5
2022-08-14T14:38:07.272Z,0.1
2022-08-14T14:39:20.022Z,0.1
2022-08-14T14:40:50.983Z,0.1
2022-08-14T14:41:43.676Z,0.3
2022-08-14T14:42:48.137Z,0.3
2022-08-14T14:43:58.723Z,0.4
2022-08-14T14:45:08.924Z,0.2
2022-08-14T14:46:18.153Z,0.5
2022-08-14T14:47:27.830Z,0.2
2022-08-14T14:48:38.592Z,0.1
2022-08-14T14:49:51.713Z,0.2
2022-08-14T14:50:59.010Z,0.2
2022-08-14T14:52:07.709Z,0.3
2022-08-14T14:53:16.399Z,0.1
2022-08-14T14:54:30.144Z,0.3
2022-08-14T14:55:43.161Z,0.1
2022-08-14T14:56:51.318Z,0.3
2022-08-14T14:57:57.237Z,0.2
2022-08-14T14:59:06.923Z,0.2
2022-08-14T15:00:18.531Z,0.2
2022-08-14T15:01:27.428Z,0.2
2022-08-14T15:02:37.280Z,0.1
2022-08-14T15:03:47.005Z,0.2
2022-08-14T15:04:54.651Z,0.1
2022-08-14T15:06:04.363Z,0.2
2022-08-14T15:07:16.270Z,0.2
2022-08-14T15:08:26.328Z,0.2
2022-08-14T15:09:34.545Z,0.3
2022-08-14T15:10:46.488Z,0.3
2022-08-14T15:11:55.936Z,0.2
2022-08-14T15:13:06.280Z,0.1
2022-08-14T15:14:54.243Z,0.3
2022-08-14T15:15:27.190Z,0.2
2022-08-14T15:16:35.916Z,0.1
2022-08-14T15:17:45.675Z,0.3
2022-08-14T15:18:55.470Z,0.1
2022-08-14T15:20:04.178Z,0.3
2022-08-14T15:21:12.857Z,0.4
2022-08-14T15:22:22.520Z,0.2
2022-08-14T15:23:43.957Z,0.1
2022-08-14T15:24:43.926Z,0.2
2022-08-14T15:25:54.601Z,0.2
2022-08-14T15:27:04.355Z,0.2
2022-08-14T15:28:13.197Z,0
2022-08-14T15:29:21.802Z,0.1
2022-08-14T15:30:32.876Z,0.2
2022-08-14T15:31:42.145Z,0.5
2022-08-14T15:32:53.091Z,0.2
2022-08-14T15:34:34.072Z,0.4
2022-08-14T15:35:11.263Z,0.2
2022-08-14T15:36:24.907Z,0.4
2022-08-14T15:37:32.599Z,0.1
2022-08-14T15:38:42.610Z,0.2
2022-08-14T15:39:52.553Z,0.1
2022-08-14T15:41:01.934Z,0.1
2022-08-14T15:42:15.092Z,0.1
2022-08-14T15:43:21.396Z,0.3
2022-08-14T15:44:34.459Z,0.3
2022-08-14T15:45:42.748Z,0.2
2022-08-14T15:46:52.540Z,0.2
2022-08-14T15:48:01.269Z,0.1
2022-08-14T15:49:11.058Z,0.3
2022-08-14T15:50:19.395Z,0.1
2022-08-14T15:51:31.209Z,0.3
2022-08-14T15:52:38.047Z,0.2
2022-08-14T15:53:47.781Z,0
2022-08-14T15:54:58.511Z,0.3
2022-08-14T15:56:09.240Z,0.2
2022-08-14T15:57:17.946Z,0.1
2022-08-14T15:58:27.651Z,0.3
2022-08-14T15:59:35.331Z,0.1
2022-08-14T16:00:49.143Z,0.3
2022-08-14T16:01:55.879Z,0.1
2022-08-14T16:03:08.498Z,0.2
2022-08-14T16:04:17.251Z,0.3
2022-08-14T16:05:25.406Z,0
2022-08-14T16:06:35.416Z,0.4
2022-08-14T16:07:46.147Z,0.1